createdAt,value
2022-08-18T00:00:33.946Z,27.35
2022-08-18T00:03:14.262Z,26.83
2022-08-18T00:05:52.350Z,27.02
2022-08-18T00:08:19.397Z,25.92
2022-08-18T00:10:46.471Z,27.02
2022-08-18T00:13:13.528Z,26.98
2022-08-18T00:15:48.998Z,27.90
2022-08-18T00:18:16.820Z,27.17
2022-08-18T00:20:43.858Z,26.98
2022-08-18T00:23:10.968Z,27.10
2022-08-18T00:25:38.068Z,27.10
2022-08-18T00:28:05.242Z,28.25
2022-08-18T00:30:32.557Z,28.37
2022-08-18T00:33:09.904Z,28.00
2022-08-18T00:35:37.993Z,27.85
2022-08-18T00:38:06.208Z,28.38
2022-08-18T00:40:40.747Z,28.35
2022-08-18T00:43:09.423Z,29.48
2022-08-18T00:45:40.451Z,29.33
2022-08-18T00:48:08.566Z,29.90
2022-08-18T00:50:38.102Z,30.45
2022-08-18T00:53:14.256Z,29.73
2022-08-18T00:55:51.348Z,29.75
2022-08-18T00:58:35.850Z,30.83
2022-08-18T01:01:05.178Z,30.20
2022-08-18T01:03:33.672Z,30.27
2022-08-18T01:06:04.759Z,30.60
2022-08-18T01:08:31.901Z,30.35
2022-08-18T01:11:02.273Z,30.65
2022-08-18T01:13:30.723Z,30.52
2022-08-18T01:15:58.051Z,30.88
2022-08-18T01:18:44.273Z,30.25
2022-08-18T01:21:40.236Z,29.80
2022-08-18T01:24:09.369Z,31.10
2022-08-18T01:26:37.698Z,31.20
2022-08-18T01:29:18.984Z,31.17
2022-08-18T01:31:55.874Z,31.25
2022-08-18T01:34:25.832Z,30.88
2022-08-18T01:36:54.103Z,30.88
2022-08-18T01:41:23.807Z,30.95
2022-08-18T01:42:09.382Z,31.52
2022-08-18T01:44:41.711Z,30.92
2022-08-18T01:47:10.706Z,31.07
2022-08-18T01:49:38.224Z,32.15
2022-08-18T01:52:07.093Z,31.15
2022-08-18T01:54:37.402Z,32.33
2022-08-18T01:57:04.623Z,31.40
2022-08-18T01:59:31.665Z,32.03
2022-08-18T02:02:00.068Z,32.03
2022-08-18T02:04:37.506Z,33.15
2022-08-18T02:07:06.999Z,33.15
2022-08-18T02:09:34.317Z,33.20
2022-08-18T02:12:01.757Z,33.10
2022-08-18T02:14:31.587Z,32.20
2022-08-18T02:17:02.936Z,32.90
2022-08-18T02:19:33.844Z,33.30
2022-08-18T02:22:01.023Z,32.17
2022-08-18T02:24:29.435Z,31.92
2022-08-18T02:26:56.559Z,32.60
2022-08-18T02:29:23.645Z,32.13
2022-08-18T02:31:50.786Z,31.77
2022-08-18T02:34:18.221Z,31.27
2022-08-18T02:36:51.715Z,31.67
2022-08-18T02:39:18.838Z,30.65
2022-08-18T02:41:45.913Z,31.15
2022-08-18T02:44:12.958Z,30.85
2022-08-18T02:46:40.194Z,31.23
2022-08-18T02:49:10.176Z,29.90
2022-08-18T02:51:37.238Z,30.60
2022-08-18T02:54:09.139Z,30.83
2022-08-18T02:56:42.101Z,30.80
2022-08-18T02:59:16.166Z,29.85
2022-08-18T03:01:44.978Z,30.20
2022-08-18T03:04:14.275Z,29.88
2022-08-18T03:06:42.132Z,29.95
2022-08-18T03:09:11.645Z,29.55
2022-08-18T03:11:41.578Z,29.58
2022-08-18T03:14:11.450Z,29.90
2022-08-18T03:16:53.346Z,29.03
2022-08-18T03:19:22.800Z,28.10
2022-08-18T03:21:49.868Z,27.60
2022-08-18T03:24:22.698Z,27.50
2022-08-18T03:26:51.654Z,27.90
2022-08-18T03:29:19.396Z,27.60
2022-08-18T03:31:49.705Z,27.47
2022-08-18T03:34:19.674Z,27.40
2022-08-18T03:36:47.471Z,26.98
2022-08-18T03:39:15.028Z,26.80
2022-08-18T03:41:57.417Z,27.88
2022-08-18T03:44:25.551Z,26.55
2022-08-18T03:46:53.735Z,26.20
2022-08-18T03:49:21.060Z,25.77
2022-08-18T03:51:48.713Z,25.17
2022-08-18T03:54:19.454Z,25.65
2022-08-18T03:56:47.641Z,26.58
2022-08-18T03:59:17.890Z,26.02
2022-08-18T04:01:46.171Z,25.95
2022-08-18T04:04:15.212Z,25.50
2022-08-18T04:06:58.091Z,24.98
2022-08-18T04:09:25.952Z,23.92
2022-08-18T04:11:56.134Z,24.83
2022-08-18T04:14:24.917Z,23.80
2022-08-18T04:16:52.583Z,24.27
2022-08-18T04:19:27.185Z,23.70
2022-08-18T04:21:57.375Z,24.25
2022-08-18T04:24:25.760Z,22.60
2022-08-18T04:26:53.051Z,23.38
2022-08-18T04:29:23.618Z,23.58
2022-08-18T04:31:53.739Z,23.63
2022-08-18T04:34:22.781Z,23.85
2022-08-18T04:36:53.590Z,23.60
2022-08-18T04:39:24.439Z,24.40
2022-08-18T04:41:51.929Z,24.08
2022-08-18T04:44:19.659Z,23.85
2022-08-18T04:46:47.909Z,23.77
2022-08-18T04:49:15.488Z,24.20
2022-08-18T04:52:22.611Z,24.00
2022-08-18T04:54:31.936Z,24.23
2022-08-18T04:56:59.118Z,23.67
2022-08-18T04:59:26.177Z,23.98
2022-08-18T05:01:56.194Z,24.73
2022-08-18T05:04:25.403Z,24.55
2022-08-18T05:06:52.673Z,24.02
2022-08-18T05:09:22.832Z,24.27
2022-08-18T05:11:50.975Z,24.50
2022-08-18T05:14:18.653Z,24.20
2022-08-18T05:16:48.894Z,24.60
2022-08-18T05:19:21.982Z,24.77
2022-08-18T05:21:51.469Z,24.52
2022-08-18T05:24:19.227Z,24.75
2022-08-18T05:26:46.404Z,24.58
2022-08-18T05:29:18.774Z,24.23
2022-08-18T05:31:47.602Z,24.65
2022-08-18T05:34:15.071Z,24.02
2022-08-18T05:36:43.767Z,25.13
2022-08-18T05:39:19.647Z,24.67
2022-08-18T05:41:57.128Z,24.30
2022-08-18T05:44:29.019Z,24.38
2022-08-18T05:47:16.344Z,24.52
2022-08-18T05:49:44.840Z,23.83
2022-08-18T05:52:20.656Z,23.55
2022-08-18T05:55:08.225Z,23.93
2022-08-18T05:57:39.794Z,24.27
2022-08-18T06:00:10.348Z,23.48
2022-08-18T06:02:51.749Z,22.30
2022-08-18T06:05:30.646Z,21.45
2022-08-18T06:08:06.682Z,20.65
2022-08-18T06:10:33.865Z,20.20
2022-08-18T06:13:02.071Z,20.50
2022-08-18T06:15:39.455Z,21.10
2022-08-18T06:18:18.965Z,20.42
2022-08-18T06:21:04.338Z,19.80
2022-08-18T06:23:50.323Z,19.02
2022-08-18T06:26:33.876Z,19.25
2022-08-18T06:29:06.974Z,19.40
2022-08-18T06:31:43.744Z,18.10
2022-08-18T06:34:16.709Z,21.02
2022-08-18T06:36:45.121Z,18.73
2022-08-18T06:39:18.048Z,19.20
2022-08-18T06:41:48.686Z,18.75
2022-08-18T06:44:50.984Z,18.52
2022-08-18T06:47:26.146Z,18.67
2022-08-18T06:50:02.103Z,17.88
2022-08-18T06:52:33.901Z,16.95
2022-08-18T06:55:06.421Z,17.30
2022-08-18T06:57:39.027Z,18.20
2022-08-18T07:00:09.667Z,16.50
2022-08-18T07:02:46.028Z,16.63
2022-08-18T07:05:21.236Z,13.77
2022-08-18T07:08:06.982Z,13.13
2022-08-18T07:10:47.062Z,13.03
2022-08-18T07:13:14.069Z,13.63
2022-08-18T07:15:48.195Z,13.30
2022-08-18T07:18:17.269Z,14.18
2022-08-18T07:20:48.658Z,13.70
2022-08-18T07:23:38.348Z,14.18
2022-08-18T07:26:11.541Z,13.98
2022-08-18T07:28:48.214Z,14.10
2022-08-18T07:31:36.648Z,14.90
2022-08-18T07:34:09.817Z,13.40
2022-08-18T07:36:42.673Z,14.15
2022-08-18T07:39:16.265Z,13.38
2022-08-18T07:41:57.421Z,12.00
2022-08-18T07:44:28.071Z,10.75
2022-08-18T07:47:03.737Z,9.82
2022-08-18T07:49:36.073Z,9.77
2022-08-18T07:52:18.574Z,10.77
2022-08-18T07:55:04.523Z,10.15
2022-08-18T07:57:42.354Z,9.53
2022-08-18T08:00:18.641Z,9.30
2022-08-18T08:03:08.888Z,8.15
2022-08-18T08:05:40.218Z,7.10
2022-08-18T08:08:25.339Z,6.63
2022-08-18T08:11:17.411Z,6.93
2022-08-18T08:14:04.345Z,5.10
2022-08-18T08:16:37.506Z,6.82
2022-08-18T08:19:12.506Z,6.70
2022-08-18T08:21:45.056Z,5.95
2022-08-18T08:24:31.609Z,6.05
2022-08-18T08:27:01.685Z,6.57
2022-08-18T08:29:44.528Z,7.78
2022-08-18T08:32:15.508Z,8.82
2022-08-18T08:34:51.689Z,9.10
2022-08-18T08:37:21.840Z,6.93
2022-08-18T08:39:57.713Z,6.95
2022-08-18T08:42:44.365Z,6.30
2022-08-18T08:45:16.928Z,6.67
2022-08-18T08:47:53.172Z,6.20
2022-08-18T08:50:22.446Z,7.30
2022-08-18T08:53:03.221Z,7.47
2022-08-18T08:55:35.049Z,7.00
2022-08-18T08:58:21.646Z,6.47
2022-08-18T09:00:52.184Z,6.65
2022-08-18T09:03:34.688Z,7.35
2022-08-18T09:06:24.765Z,6.97
2022-08-18T09:08:57.291Z,7.93
2022-08-18T09:11:34.865Z,7.97
2022-08-18T09:14:14.196Z,7.60
2022-08-18T09:16:41.265Z,7.90
2022-08-18T09:19:14.511Z,9.25
2022-08-18T09:21:49.626Z,9.20
2022-08-18T09:24:22.818Z,9.50
2022-08-18T09:26:55.628Z,8.50
2022-08-18T09:29:23.622Z,9.47
2022-08-18T09:32:12.472Z,9.95
2022-08-18T09:34:46.201Z,9.10
2022-08-18T09:37:17.161Z,9.38
2022-08-18T09:40:10.912Z,8.32
2022-08-18T09:42:49.905Z,9.02
2022-08-18T09:45:33.989Z,8.97
2022-08-18T09:48:03.715Z,8.25
2022-08-18T09:50:38.897Z,10.18
2022-08-18T09:53:24.769Z,9.57
2022-08-18T09:56:00.772Z,9.50
2022-08-18T09:58:29.488Z,7.53
2022-08-18T10:01:19.879Z,7.18
2022-08-18T10:04:08.307Z,7.70
2022-08-18T10:06:39.700Z,7.57
2022-08-18T10:09:26.670Z,7.50
2022-08-18T10:12:09.841Z,7.30
2022-08-18T10:14:42.823Z,7.35
2022-08-18T10:17:31.275Z,6.60
2022-08-18T10:20:26.467Z,6.30
2022-08-18T10:22:54.864Z,6.47
2022-08-18T10:25:39.619Z,6.33
2022-08-18T10:28:13.653Z,5.43
2022-08-18T10:33:47.849Z,6.43
2022-08-18T10:36:33.167Z,5.88
2022-08-18T10:39:07.803Z,5.90
2022-08-18T10:41:37.890Z,6.38
2022-08-18T10:44:27.609Z,5.90
2022-08-18T10:46:55.835Z,5.97
2022-08-18T10:49:26.039Z,6.55
2022-08-18T10:52:21.129Z,6.20
2022-08-18T10:55:10.321Z,6.25
2022-08-18T10:58:00.845Z,6.20
2022-08-18T11:00:40.653Z,6.50
2022-08-18T11:03:50.403Z,5.50
2022-08-18T11:06:24.818Z,6.90
2022-08-18T11:11:53.229Z,4.73
2022-08-18T11:14:45.714Z,5.57
2022-08-18T11:17:36.149Z,5.95
2022-08-18T11:20:09.619Z,5.40
2022-08-18T11:22:38.422Z,5.60
2022-08-18T11:25:19.672Z,5.10
2022-08-18T11:27:48.374Z,5.30
2022-08-18T11:30:17.267Z,5.18
2022-08-18T11:32:52.210Z,4.50
2022-08-18T11:35:22.132Z,4.85
2022-08-18T11:43:29.489Z,5.30
2022-08-18T11:46:17.472Z,5.77
2022-08-18T11:48:53.368Z,5.30
2022-08-18T11:51:27.158Z,5.53
2022-08-18T11:54:19.660Z,5.28
2022-08-18T11:56:47.611Z,5.53
2022-08-18T12:02:17.767Z,5.72
2022-08-18T12:04:44.951Z,6.03
2022-08-18T12:07:14.151Z,5.95
2022-08-18T12:12:45.079Z,5.60
2022-08-18T12:15:17.669Z,4.78
2022-08-18T12:17:53.014Z,5.93
2022-08-18T12:20:20.793Z,6.20
2022-08-18T12:22:49.600Z,6.18
2022-08-18T12:25:24.810Z,6.70
2022-08-18T12:27:52.589Z,4.75
2022-08-18T12:30:22.423Z,5.80
2022-08-18T12:32:51.291Z,5.50
2022-08-18T12:35:23.716Z,4.60
2022-08-18T12:38:11.128Z,4.67
2022-08-18T12:40:39.928Z,5.60
2022-08-18T12:43:07.150Z,5.03
2022-08-18T12:45:34.689Z,4.20
2022-08-18T12:48:14.367Z,4.93
2022-08-18T12:50:54.399Z,6.10
2022-08-18T12:53:29.843Z,4.32
2022-08-18T12:56:06.346Z,4.10
2022-08-18T12:58:36.322Z,6.13
2022-08-18T13:01:03.931Z,6.50
2022-08-18T13:03:36.976Z,6.82
2022-08-18T13:06:04.875Z,5.53
2022-08-18T13:08:33.633Z,7.00
2022-08-18T13:11:14.759Z,4.90
2022-08-18T13:13:53.277Z,4.85
2022-08-18T13:16:39.067Z,6.70
2022-08-18T13:19:16.637Z,4.75
2022-08-18T13:21:43.709Z,4.60
2022-08-18T13:24:16.530Z,4.60
2022-08-18T13:26:49.517Z,4.50
2022-08-18T13:29:19.291Z,3.90
2022-08-18T13:31:55.406Z,4.50
2022-08-18T13:34:24.990Z,7.00
2022-08-18T13:36:52.602Z,5.07
2022-08-18T13:39:20.997Z,5.60
2022-08-18T13:41:49.251Z,4.68
2022-08-18T13:44:18.596Z,7.00
2022-08-18T13:46:48.120Z,5.40
2022-08-18T13:49:15.985Z,6.75
2022-08-18T13:51:46.633Z,5.43
2022-08-18T13:54:30.382Z,4.50
2022-08-18T13:56:59.497Z,5.70
2022-08-18T13:59:31.604Z,6.97
2022-08-18T14:01:59.524Z,7.47
2022-08-18T14:04:29.277Z,7.07
2022-08-18T14:06:59.837Z,7.53
2022-08-18T14:09:37.614Z,6.47
2022-08-18T14:12:06.473Z,5.68
2022-08-18T14:14:33.658Z,5.00
2022-08-18T14:17:01.190Z,6.45
2022-08-18T14:20:04.323Z,6.82
2022-08-18T14:22:50.008Z,7.30
2022-08-18T14:25:35.824Z,7.72
2022-08-18T14:28:04.051Z,6.10
2022-08-18T14:30:31.509Z,7.38
2022-08-18T14:33:00.209Z,8.32
2022-08-18T14:36:04.579Z,7.88
2022-08-18T14:38:15.992Z,7.53
2022-08-18T14:40:44.091Z,7.15
2022-08-18T14:43:14.181Z,8.20
2022-08-18T14:45:47.560Z,7.40
2022-08-18T14:48:21.510Z,6.55
2022-08-18T14:50:50.287Z,7.28
2022-08-18T14:53:20.119Z,7.00
2022-08-18T14:55:54.547Z,5.60
2022-08-18T14:58:26.219Z,5.90
2022-08-18T15:00:56.266Z,5.83
2022-08-18T15:03:31.045Z,6.40
2022-08-18T15:06:00.385Z,6.45
2022-08-18T15:08:27.950Z,6.15
2022-08-18T15:10:55.901Z,5.90
2022-08-18T15:13:26.477Z,5.68
2022-08-18T15:15:55.771Z,7.18
2022-08-18T15:18:38.052Z,6.47
2022-08-18T15:21:35.623Z,8.80
2022-08-18T15:24:29.076Z,8.00
2022-08-18T15:26:58.356Z,7.30
2022-08-18T15:29:33.316Z,8.20
2022-08-18T15:32:10.257Z,11.10
2022-08-18T15:34:46.385Z,9.57
2022-08-18T15:37:24.147Z,9.13
2022-08-18T15:39:59.636Z,10.63
2022-08-18T15:42:29.675Z,11.55
2022-08-18T15:44:56.846Z,12.90
2022-08-18T15:47:26.789Z,13.02
2022-08-18T15:49:54.849Z,12.23
2022-08-18T15:52:31.136Z,10.93
2022-08-18T15:55:02.237Z,11.27
2022-08-18T15:57:39.151Z,11.10
2022-08-18T16:00:07.567Z,10.73
2022-08-18T16:02:39.887Z,9.98
2022-08-18T16:05:09.264Z,9.20
2022-08-18T16:07:41.317Z,9.48
2022-08-18T16:10:21.578Z,9.25
2022-08-18T16:12:48.692Z,10.80
2022-08-18T16:15:19.910Z,11.07
2022-08-18T16:17:49.236Z,10.57
2022-08-18T16:20:18.599Z,11.88
2022-08-18T16:22:46.239Z,11.32
2022-08-18T16:25:13.305Z,11.40
2022-08-18T16:27:43.213Z,11.87
2022-08-18T16:30:11.814Z,11.82
2022-08-18T16:32:41.532Z,10.63
2022-08-18T16:35:09.068Z,12.32
2022-08-18T16:37:38.672Z,12.02
2022-08-18T16:40:06.078Z,12.63
2022-08-18T16:42:34.645Z,10.97
2022-08-18T16:45:02.339Z,11.23
2022-08-18T16:47:32.116Z,9.15
2022-08-18T16:50:00.036Z,9.63
2022-08-18T16:52:27.327Z,9.70
2022-08-18T16:54:57.295Z,10.00
2022-08-18T16:57:53.788Z,9.77
2022-08-18T17:00:42.210Z,10.00
2022-08-18T17:03:30.584Z,10.70
2022-08-18T17:06:04.880Z,9.00
2022-08-18T17:08:34.005Z,8.20
2022-08-18T17:11:05.344Z,7.80
2022-08-18T17:13:32.616Z,7.25
2022-08-18T17:15:59.799Z,7.87
2022-08-18T17:18:27.463Z,10.38
2022-08-18T17:20:55.497Z,8.20
2022-08-18T17:23:22.681Z,10.25
2022-08-18T17:25:50.370Z,8.53
2022-08-18T17:28:19.818Z,8.32
2022-08-18T17:30:53.000Z,8.45
2022-08-18T17:33:24.565Z,8.70
2022-08-18T17:35:54.049Z,6.50
2022-08-18T17:38:32.488Z,6.70
2022-08-18T17:40:59.842Z,7.30
2022-08-18T17:43:30.212Z,7.43
2022-08-18T17:46:10.215Z,6.82
2022-08-18T17:48:53.915Z,6.70
2022-08-18T17:51:35.278Z,7.20
2022-08-18T17:54:13.147Z,7.63
